createdAt,value
2023-01-17T00:01:46.613Z,4.01
2023-01-17T00:04:31.843Z,3.87
2023-01-17T00:07:17.059Z,3.93
2023-01-17T00:09:58.891Z,4.19
2023-01-17T00:12:30.695Z,3.88
2023-01-17T00:14:58.580Z,4.28
2023-01-17T00:17:26.916Z,4.04
2023-01-17T00:20:12.373Z,4.06
2023-01-17T00:22:57.835Z,3.99
2023-01-17T00:25:49.380Z,4.06
2023-01-17T00:28:16.332Z,4.00
2023-01-17T00:30:42.902Z,3.90
2023-01-17T00:33:09.463Z,3.85
2023-01-17T00:35:36.112Z,3.83
2023-01-17T00:38:13.835Z,4.30
2023-01-17T00:40:42.312Z,4.29
2023-01-17T00:43:29.364Z,4.32
2023-01-17T00:46:15.102Z,4.26
2023-01-17T00:49:03.103Z,4.15
2023-01-17T00:51:49.902Z,4.08
2023-01-17T00:54:34.917Z,3.89
2023-01-17T00:57:20.524Z,4.18
2023-01-17T01:00:05.761Z,4.16
2023-01-17T01:02:51.785Z,4.02
2023-01-17T01:05:37.138Z,4.15
2023-01-17T01:08:22.370Z,4.16
2023-01-17T01:11:07.639Z,4.00
2023-01-17T01:13:56.013Z,4.17
2023-01-17T01:16:41.148Z,3.98
2023-01-17T01:19:26.351Z,3.91
2023-01-17T01:22:11.849Z,3.81
2023-01-17T01:24:56.776Z,3.92
2023-01-17T01:27:41.862Z,3.89
2023-01-17T01:30:27.438Z,3.96
2023-01-17T01:33:12.454Z,3.77
2023-01-17T01:35:39.169Z,3.41
2023-01-17T01:38:05.908Z,3.63
2023-01-17T01:40:32.629Z,3.52
2023-01-17T01:43:00.398Z,3.59
2023-01-17T01:45:29.172Z,3.52
2023-01-17T01:48:05.203Z,3.53
2023-01-17T01:50:34.181Z,3.29
2023-01-17T01:53:02.780Z,3.41
2023-01-17T01:55:32.715Z,3.30
2023-01-17T01:58:04.808Z,3.50
2023-01-17T02:00:35.249Z,3.34
2023-01-17T02:03:06.845Z,3.32
2023-01-17T02:05:33.978Z,3.38
2023-01-17T02:08:08.778Z,3.25
2023-01-17T02:10:36.858Z,3.33
2023-01-17T02:13:04.278Z,3.25
2023-01-17T02:15:55.955Z,3.32
2023-01-17T02:18:45.220Z,3.37
2023-01-17T02:21:33.958Z,3.33
2023-01-17T02:24:08.470Z,3.28
2023-01-17T02:26:44.704Z,3.34
2023-01-17T02:29:32.738Z,3.38
2023-01-17T02:32:11.117Z,3.53
2023-01-17T02:34:42.236Z,3.27
2023-01-17T02:37:20.557Z,3.39
2023-01-17T02:40:00.605Z,3.24
2023-01-17T02:42:32.386Z,3.23
2023-01-17T02:44:59.011Z,3.03
2023-01-17T02:47:31.499Z,3.04
2023-01-17T02:50:02.012Z,2.69
2023-01-17T02:52:43.909Z,2.53
2023-01-17T02:55:40.877Z,2.58
2023-01-17T02:58:19.379Z,2.58
2023-01-17T03:00:59.081Z,2.59
2023-01-17T03:03:34.076Z,2.78
2023-01-17T03:06:13.714Z,2.85
2023-01-17T03:08:41.661Z,2.80
2023-01-17T03:11:09.713Z,2.93
2023-01-17T03:13:36.761Z,2.69
2023-01-17T03:16:06.493Z,2.93
2023-01-17T03:18:33.156Z,2.90
2023-01-17T03:21:02.125Z,2.86
2023-01-17T03:23:28.820Z,2.93
2023-01-17T03:25:55.460Z,2.78
2023-01-17T03:28:22.143Z,2.94
2023-01-17T03:30:48.786Z,2.99
2023-01-17T03:33:17.740Z,2.81
2023-01-17T03:35:49.823Z,2.64
2023-01-17T03:38:16.456Z,2.60
2023-01-17T03:40:46.621Z,2.84
2023-01-17T03:43:13.535Z,2.95
2023-01-17T03:45:40.224Z,3.01
2023-01-17T03:48:06.898Z,3.18
2023-01-17T03:50:33.521Z,3.09
2023-01-17T03:53:02.006Z,3.14
2023-01-17T03:55:28.649Z,3.27
2023-01-17T03:57:55.212Z,3.08
2023-01-17T04:00:22.556Z,2.95
2023-01-17T04:02:49.692Z,3.11
2023-01-17T04:05:17.032Z,2.81
2023-01-17T04:07:46.622Z,2.55
2023-01-17T04:10:17.206Z,2.47
2023-01-17T04:12:43.870Z,2.26
2023-01-17T04:15:10.969Z,2.23
2023-01-17T04:17:37.766Z,2.47
2023-01-17T04:20:04.862Z,2.40
2023-01-17T04:22:34.199Z,2.39
2023-01-17T04:25:01.061Z,2.26
2023-01-17T04:27:27.664Z,2.21
2023-01-17T04:29:54.311Z,2.12
2023-01-17T04:32:20.897Z,2.30
2023-01-17T04:34:47.530Z,2.28
2023-01-17T04:37:14.180Z,2.43
2023-01-17T04:39:40.752Z,2.53
2023-01-17T04:42:07.538Z,2.40
2023-01-17T04:44:34.152Z,2.48
2023-01-17T04:47:02.030Z,2.46
2023-01-17T04:49:28.643Z,2.18
2023-01-17T04:51:55.227Z,2.21
2023-01-17T04:54:21.816Z,2.29
2023-01-17T04:56:49.094Z,2.08
2023-01-17T04:59:16.012Z,2.17
2023-01-17T05:01:42.805Z,2.02
2023-01-17T05:04:09.465Z,2.26
2023-01-17T05:06:36.054Z,2.23
2023-01-17T05:09:02.856Z,2.28
2023-01-17T05:11:29.465Z,2.45
2023-01-17T05:13:56.101Z,2.48
2023-01-17T05:16:22.886Z,2.18
2023-01-17T05:18:54.964Z,2.16
2023-01-17T05:21:22.149Z,1.99
2023-01-17T05:23:48.867Z,2.23
2023-01-17T05:26:15.519Z,2.09
2023-01-17T05:28:42.117Z,2.03
2023-01-17T05:31:09.146Z,2.15
2023-01-17T05:33:35.870Z,2.45
2023-01-17T05:36:03.574Z,2.73
2023-01-17T05:38:30.125Z,2.32
2023-01-17T05:41:04.648Z,2.04
2023-01-17T05:43:34.279Z,2.11
2023-01-17T05:46:00.972Z,2.44
2023-01-17T05:48:27.602Z,2.46
2023-01-17T05:50:54.265Z,2.15
2023-01-17T05:53:20.845Z,2.31
2023-01-17T05:55:48.055Z,2.12
2023-01-17T05:58:22.528Z,2.63
2023-01-17T06:00:49.899Z,2.65
2023-01-17T06:03:16.671Z,2.55
2023-01-17T06:05:44.925Z,2.68
2023-01-17T06:08:11.634Z,2.58
2023-01-17T06:10:38.231Z,2.70
2023-01-17T06:13:07.458Z,2.54
2023-01-17T06:15:35.838Z,2.54
2023-01-17T06:18:07.429Z,2.18
2023-01-17T06:20:34.169Z,2.09
2023-01-17T06:23:04.925Z,2.34
2023-01-17T06:25:43.816Z,2.01
2023-01-17T06:28:12.391Z,2.14
2023-01-17T06:30:42.162Z,1.99
2023-01-17T06:33:08.725Z,2.25
2023-01-17T06:35:37.522Z,2.09
2023-01-17T06:38:04.239Z,2.37
2023-01-17T06:40:31.020Z,2.32
2023-01-17T06:43:01.944Z,2.17
2023-01-17T06:45:29.871Z,2.16
2023-01-17T06:47:58.584Z,2.17
2023-01-17T06:50:26.495Z,2.46
2023-01-17T06:53:01.032Z,2.25
2023-01-17T06:55:29.435Z,2.04
2023-01-17T06:57:57.123Z,2.39
2023-01-17T07:00:24.071Z,2.45
2023-01-17T07:02:53.276Z,2.37
2023-01-17T07:05:20.363Z,2.18
2023-01-17T07:07:47.310Z,2.13
2023-01-17T07:10:14.831Z,2.16
2023-01-17T07:12:41.487Z,2.34
2023-01-17T07:15:08.635Z,2.36
2023-01-17T07:17:35.321Z,2.35
2023-01-17T07:20:02.074Z,1.99
2023-01-17T07:22:28.651Z,2.22
2023-01-17T07:24:58.658Z,2.43
2023-01-17T07:27:27.912Z,2.45
2023-01-17T07:29:54.542Z,2.68
2023-01-17T07:32:21.530Z,2.76
2023-01-17T07:34:48.254Z,2.54
2023-01-17T07:37:15.394Z,2.37
2023-01-17T07:39:42.257Z,2.40
2023-01-17T07:42:09.307Z,2.60
2023-01-17T07:44:36.142Z,2.23
2023-01-17T07:47:04.260Z,2.20
2023-01-17T07:49:30.943Z,2.54
2023-01-17T07:51:57.626Z,2.75
2023-01-17T07:54:24.242Z,2.96
2023-01-17T07:56:50.873Z,2.72
2023-01-17T07:59:18.124Z,2.76
2023-01-17T08:01:44.910Z,3.03
2023-01-17T08:04:11.690Z,2.86
2023-01-17T08:06:39.558Z,2.97
2023-01-17T08:09:06.259Z,3.22
2023-01-17T08:11:32.843Z,3.36
2023-01-17T08:14:02.347Z,3.37
2023-01-17T08:16:29.734Z,3.40
2023-01-17T08:18:56.740Z,3.43
2023-01-17T08:21:23.905Z,3.08
2023-01-17T08:23:51.620Z,3.12
2023-01-17T08:26:22.696Z,3.03
2023-01-17T08:28:55.108Z,3.13
2023-01-17T08:31:21.773Z,2.86
2023-01-17T08:33:48.429Z,3.00
2023-01-17T08:36:15.097Z,2.99
2023-01-17T08:38:41.659Z,2.65
2023-01-17T08:41:08.530Z,2.64
2023-01-17T08:43:35.325Z,2.80
2023-01-17T08:46:02.049Z,2.79
2023-01-17T08:48:28.775Z,2.84
2023-01-17T08:50:55.431Z,2.71
2023-01-17T08:53:23.290Z,2.71
2023-01-17T08:55:57.627Z,2.94
2023-01-17T08:58:24.277Z,2.92
2023-01-17T09:00:50.978Z,2.91
2023-01-17T09:03:17.704Z,2.97
2023-01-17T09:05:44.400Z,2.83
2023-01-17T09:08:11.225Z,3.00
2023-01-17T09:10:37.841Z,3.25
2023-01-17T09:13:07.562Z,3.27
2023-01-17T09:15:34.285Z,3.07
2023-01-17T09:18:01.571Z,3.18
2023-01-17T09:20:30.167Z,2.70
2023-01-17T09:22:57.553Z,3.03
2023-01-17T09:25:24.244Z,3.41
2023-01-17T09:27:50.943Z,3.57
2023-01-17T09:30:17.740Z,3.30
2023-01-17T09:32:44.374Z,3.38
2023-01-17T09:35:11.830Z,3.38
2023-01-17T09:37:38.553Z,3.82
2023-01-17T09:40:10.520Z,4.00
2023-01-17T09:42:39.783Z,3.75
2023-01-17T09:45:15.040Z,4.11
2023-01-17T09:47:44.229Z,4.05
2023-01-17T09:50:32.111Z,4.00
2023-01-17T09:53:01.787Z,4.01
2023-01-17T09:55:43.020Z,4.23
2023-01-17T09:58:19.951Z,3.97
2023-01-17T10:01:13.051Z,4.07
2023-01-17T10:03:52.153Z,3.73
2023-01-17T10:06:36.582Z,4.20
2023-01-17T10:09:09.382Z,4.15
2023-01-17T10:11:43.144Z,4.22
2023-01-17T10:14:28.349Z,4.29
2023-01-17T10:17:03.458Z,4.22
2023-01-17T10:19:31.098Z,4.39
2023-01-17T10:22:19.725Z,4.47
2023-01-17T10:25:07.278Z,4.42
2023-01-17T10:27:43.816Z,4.32
2023-01-17T10:30:27.800Z,4.63
2023-01-17T10:32:56.504Z,4.42
2023-01-17T10:35:27.343Z,4.62
2023-01-17T10:37:58.449Z,4.63
2023-01-17T10:40:29.759Z,4.67
2023-01-17T10:43:04.696Z,4.52
2023-01-17T10:45:37.205Z,4.41
2023-01-17T10:48:29.707Z,4.43
2023-01-17T10:51:03.099Z,4.48
2023-01-17T10:54:04.692Z,4.66
2023-01-17T10:56:32.552Z,4.56
2023-01-17T10:59:23.691Z,4.10
2023-01-17T11:01:51.311Z,4.57
2023-01-17T11:04:21.630Z,4.39
2023-01-17T11:07:20.979Z,4.09
2023-01-17T11:09:55.835Z,4.53
2023-01-17T11:13:01.220Z,4.23
2023-01-17T11:15:28.021Z,4.33
2023-01-17T11:18:06.337Z,4.44
2023-01-17T11:20:36.196Z,4.61
2023-01-17T11:23:14.658Z,4.70
2023-01-17T11:25:48.972Z,4.68
2023-01-17T11:28:30.500Z,4.72
2023-01-17T11:31:01.082Z,4.68
2023-01-17T11:33:35.982Z,4.47
2023-01-17T11:36:02.732Z,4.61
2023-01-17T11:38:29.418Z,4.99
2023-01-17T11:41:15.967Z,5.21
2023-01-17T11:43:50.677Z,5.41
2023-01-17T11:46:18.691Z,5.34
2023-01-17T11:48:56.198Z,4.89
2023-01-17T11:51:30.228Z,4.83
2023-01-17T11:54:12.460Z,5.10
2023-01-17T11:56:40.630Z,4.89
2023-01-17T11:59:35.114Z,4.96
2023-01-17T12:02:42.373Z,5.13
2023-01-17T12:05:33.377Z,5.22
2023-01-17T12:08:24.891Z,5.14
2023-01-17T12:11:03.524Z,4.99
2023-01-17T12:13:54.121Z,5.31
2023-01-17T12:16:29.975Z,5.65
2023-01-17T12:19:08.688Z,5.81
2023-01-17T12:22:12.775Z,6.04
2023-01-17T12:25:14.886Z,5.85
2023-01-17T12:27:51.541Z,5.77
2023-01-17T12:30:34.946Z,6.21
2023-01-17T12:33:19.370Z,6.14
2023-01-17T12:35:55.887Z,6.47
2023-01-17T12:38:32.906Z,6.78
2023-01-17T12:41:33.836Z,6.44
2023-01-17T12:44:01.036Z,6.32
2023-01-17T12:46:53.910Z,6.59
2023-01-17T12:49:26.463Z,6.73
2023-01-17T12:51:57.956Z,6.49
2023-01-17T12:54:35.827Z,6.71
2023-01-17T12:57:06.440Z,6.80
2023-01-17T13:00:00.573Z,6.57
2023-01-17T13:02:37.820Z,6.83
2023-01-17T13:05:07.592Z,6.77
2023-01-17T13:07:53.153Z,6.87
2023-01-17T13:10:41.410Z,6.81
2023-01-17T13:13:23.936Z,6.61
2023-01-17T13:15:54.435Z,6.44
2023-01-17T13:18:25.936Z,6.49
2023-01-17T13:21:12.910Z,6.97
2023-01-17T13:23:59.067Z,6.74
2023-01-17T13:26:49.073Z,6.98
2023-01-17T13:29:36.991Z,6.79
2023-01-17T13:32:06.676Z,6.54
2023-01-17T13:34:40.984Z,6.65
2023-01-17T13:37:29.406Z,6.63
2023-01-17T13:40:35.315Z,6.63
2023-01-17T13:43:03.585Z,6.55
2023-01-17T13:45:32.994Z,6.65
2023-01-17T13:48:11.832Z,6.35
2023-01-17T13:50:38.376Z,6.29
2023-01-17T13:53:43.993Z,6.42
2023-01-17T13:56:19.669Z,6.40
2023-01-17T13:58:50.512Z,6.66
2023-01-17T14:01:23.207Z,6.57
2023-01-17T14:03:50.278Z,6.36
2023-01-17T14:06:35.843Z,6.45
2023-01-17T14:09:02.352Z,6.38
2023-01-17T14:11:32.638Z,6.38
2023-01-17T14:14:55.613Z,6.52
2023-01-17T14:17:22.974Z,6.54
2023-01-17T14:19:56.245Z,6.26
2023-01-17T14:22:59.271Z,6.05
2023-01-17T14:25:30.262Z,6.07
2023-01-17T14:28:02.175Z,6.05
2023-01-17T14:30:31.910Z,5.98
2023-01-17T14:32:58.615Z,5.98
2023-01-17T14:35:31.490Z,5.99
2023-01-17T14:38:01.697Z,5.90
2023-01-17T14:40:30.795Z,5.87
2023-01-17T14:43:03.859Z,5.85
2023-01-17T14:45:33.116Z,5.77
2023-01-17T14:48:02.131Z,5.62
2023-01-17T14:50:39.243Z,5.44
2023-01-17T14:53:19.835Z,5.59
2023-01-17T14:56:02.769Z,5.70
2023-01-17T14:58:42.321Z,5.25
2023-01-17T15:01:19.045Z,5.50
2023-01-17T15:03:51.420Z,5.53
2023-01-17T15:06:25.469Z,5.22
2023-01-17T15:08:55.149Z,5.34
2023-01-17T15:11:28.006Z,5.43
2023-01-17T15:13:57.697Z,5.57
2023-01-17T15:16:26.301Z,5.32
2023-01-17T15:18:54.740Z,5.19
2023-01-17T15:21:23.906Z,5.18
2023-01-17T15:23:53.854Z,5.35
2023-01-17T15:26:24.179Z,5.50
2023-01-17T15:28:52.604Z,5.55
2023-01-17T15:31:38.700Z,5.99
2023-01-17T15:34:12.279Z,5.70
2023-01-17T15:36:39.226Z,5.33
2023-01-17T15:39:39.461Z,5.30
2023-01-17T15:42:15.047Z,5.45
2023-01-17T15:44:48.464Z,5.45
2023-01-17T15:47:35.754Z,5.50
2023-01-17T15:50:27.600Z,5.50
2023-01-17T15:53:04.608Z,5.50
2023-01-17T15:55:33.736Z,5.44
2023-01-17T15:58:00.912Z,5.52
2023-01-17T16:00:37.885Z,5.72
2023-01-17T16:03:34.640Z,5.73
2023-01-17T16:06:03.351Z,5.62
2023-01-17T16:08:34.204Z,5.37
2023-01-17T16:11:03.156Z,5.33
2023-01-17T16:13:31.916Z,4.97
2023-01-17T16:16:24.684Z,4.88
2023-01-17T16:18:58.845Z,4.66
2023-01-17T16:21:28.162Z,4.84
2023-01-17T16:23:55.444Z,4.75
2023-01-17T16:26:25.278Z,4.44
2023-01-17T16:28:52.194Z,4.76
2023-01-17T16:31:19.510Z,4.70
2023-01-17T16:33:49.022Z,4.50
2023-01-17T16:36:16.564Z,4.77
2023-01-17T16:38:44.637Z,4.26
2023-01-17T16:41:11.389Z,4.16
2023-01-17T16:43:38.044Z,4.34
2023-01-17T16:46:05.899Z,4.46
2023-01-17T16:48:32.645Z,4.47
2023-01-17T16:50:59.401Z,4.44
2023-01-17T16:53:28.324Z,4.60
2023-01-17T16:55:57.831Z,4.55
2023-01-17T16:58:24.727Z,4.10
2023-01-17T17:00:51.690Z,4.06
2023-01-17T17:03:20.180Z,4.07
2023-01-17T17:05:55.212Z,4.00
2023-01-17T17:08:24.341Z,3.91
2023-01-17T17:10:51.086Z,3.74
2023-01-17T17:13:18.037Z,3.51
2023-01-17T17:15:44.803Z,3.57
2023-01-17T17:18:13.964Z,3.58
2023-01-17T17:20:40.719Z,3.58
2023-01-17T17:23:07.309Z,3.41
2023-01-17T17:25:34.236Z,3.40
2023-01-17T17:28:00.907Z,3.48
2023-01-17T17:30:27.589Z,3.76
2023-01-17T17:32:54.233Z,3.63
2023-01-17T17:35:23.225Z,3.58
2023-01-17T17:37:49.971Z,3.86
2023-01-17T17:40:16.753Z,3.52
2023-01-17T17:42:43.380Z,3.40
2023-01-17T17:45:10.428Z,3.43
2023-01-17T17:47:37.040Z,3.38
2023-01-17T17:50:03.933Z,3.47
2023-01-17T17:52:32.831Z,3.66
2023-01-17T17:54:59.662Z,3.89
2023-01-17T17:57:26.456Z,3.99
2023-01-17T17:59:56.001Z,4.03
2023-01-17T18:02:22.902Z,4.16
2023-01-17T18:04:49.477Z,3.90
2023-01-17T18:07:16.090Z,4.19
2023-01-17T18:09:42.897Z,3.76
2023-01-17T18:12:09.499Z,3.61
2023-01-17T18:14:36.159Z,3.53
2023-01-17T18:17:03.546Z,3.71
2023-01-17T18:19:30.314Z,3.55
2023-01-17T18:21:58.072Z,3.43
2023-01-17T18:24:25.748Z,3.21
2023-01-17T18:26:57.219Z,3.14
2023-01-17T18:29:25.257Z,3.12
2023-01-17T18:31:53.748Z,3.24
2023-01-17T18:34:27.084Z,3.74
2023-01-17T18:36:54.145Z,3.53
2023-01-17T18:39:26.974Z,3.74
2023-01-17T18:41:54.074Z,4.04
2023-01-17T18:44:22.130Z,3.47
2023-01-17T18:46:50.126Z,3.68
2023-01-17T18:49:19.414Z,3.93
2023-01-17T18:51:50.227Z,3.95
2023-01-17T18:54:17.946Z,3.86
2023-01-17T18:56:45.165Z,3.79
2023-01-17T18:59:18.070Z,3.42
2023-01-17T19:01:45.117Z,3.53
2023-01-17T19:04:13.719Z,3.84
2023-01-17T19:06:42.967Z,3.91
2023-01-17T19:09:11.555Z,4.06
2023-01-17T19:11:38.635Z,3.68
2023-01-17T19:14:06.238Z,3.06
2023-01-17T19:16:35.987Z,3.32
2023-01-17T19:19:05.541Z,3.61
2023-01-17T19:21:32.551Z,3.43
2023-01-17T19:23:59.924Z,3.60
2023-01-17T19:26:27.538Z,3.04
2023-01-17T19:28:56.266Z,2.39
2023-01-17T19:31:25.505Z,1.76
2023-01-17T19:33:54.647Z,1.86
2023-01-17T19:36:25.587Z,1.78
2023-01-17T19:39:03.971Z,1.91
2023-01-17T19:41:31.799Z,1.73
2023-01-17T19:44:00.419Z,2.10
2023-01-17T19:46:27.599Z,2.31
2023-01-17T19:48:55.487Z,2.25
2023-01-17T19:51:22.383Z,2.48
2023-01-17T19:53:49.869Z,2.96
2023-01-17T19:56:20.152Z,2.60
2023-01-17T19:58:47.859Z,2.77
2023-01-17T20:01:20.795Z,3.39
2023-01-17T20:03:48.948Z,3.04
2023-01-17T20:06:18.948Z,2.75
2023-01-17T20:08:46.141Z,2.78
2023-01-17T20:11:15.329Z,3.02
2023-01-17T20:13:42.475Z,3.30
2023-01-17T20:16:11.535Z,3.05
2023-01-17T20:18:38.526Z,2.54
2023-01-17T20:21:10.753Z,2.32
2023-01-17T20:23:39.377Z,2.31
2023-01-17T20:26:06.567Z,2.33
2023-01-17T20:28:34.627Z,2.26
2023-01-17T20:31:15.063Z,2.16
2023-01-17T20:33:43.277Z,2.55
2023-01-17T20:36:14.941Z,2.47
2023-01-17T20:38:45.581Z,2.39
2023-01-17T20:41:17.338Z,2.52
2023-01-17T20:43:45.596Z,2.44
2023-01-17T20:46:12.662Z,2.32
2023-01-17T20:48:56.156Z,2.23
2023-01-17T20:51:27.380Z,2.14
2023-01-17T20:53:56.823Z,1.69
2023-01-17T20:56:24.423Z,2.08
2023-01-17T20:58:52.233Z,1.94
2023-01-17T21:01:19.508Z,2.11
2023-01-17T21:03:51.025Z,2.37
2023-01-17T21:06:18.607Z,2.22
2023-01-17T21:08:45.930Z,1.76
2023-01-17T21:11:15.233Z,1.98
2023-01-17T21:13:43.026Z,2.37
2023-01-17T21:16:12.638Z,2.64
2023-01-17T21:18:39.403Z,2.50
2023-01-17T21:21:08.701Z,2.72
2023-01-17T21:23:36.391Z,2.63
2023-01-17T21:26:03.453Z,2.29
2023-01-17T21:28:32.463Z,2.42
2023-01-17T21:30:59.474Z,2.30
2023-01-17T21:33:27.191Z,2.11
2023-01-17T21:35:53.779Z,2.11
2023-01-17T21:38:22.700Z,1.90
2023-01-17T21:40:49.383Z,1.79
2023-01-17T21:43:16.012Z,1.98
2023-01-17T21:45:43.071Z,1.99
2023-01-17T21:48:14.528Z,1.86
2023-01-17T21:50:41.312Z,1.96
2023-01-17T21:53:09.997Z,1.60
2023-01-17T21:55:55.947Z,1.97
2023-01-17T21:58:41.193Z,2.01
2023-01-17T22:01:15.587Z,1.95
2023-01-17T22:03:42.757Z,1.60
2023-01-17T22:06:10.337Z,1.40
2023-01-17T22:08:37.923Z,2.05
2023-01-17T22:11:10.918Z,1.80
2023-01-17T22:13:38.865Z,1.36
2023-01-17T22:16:10.277Z,1.67
2023-01-17T22:18:38.925Z,2.05
2023-01-17T22:21:12.262Z,1.87
2023-01-17T22:23:40.099Z,1.44
2023-01-17T22:26:11.841Z,1.76
2023-01-17T22:28:39.501Z,1.70
2023-01-17T22:31:08.842Z,1.86
2023-01-17T22:33:37.090Z,2.20
2023-01-17T22:36:04.694Z,1.81
2023-01-17T22:38:31.988Z,1.70
2023-01-17T22:41:09.262Z,1.89
2023-01-17T22:43:43.133Z,2.22
2023-01-17T22:46:12.664Z,1.89
2023-01-17T22:48:39.940Z,1.99
2023-01-17T22:51:08.728Z,1.66
2023-01-17T22:53:46.118Z,1.53
2023-01-17T22:56:14.796Z,1.54
2023-01-17T22:58:44.695Z,1.21
2023-01-17T23:01:13.458Z,1.30
2023-01-17T23:03:41.131Z,1.16
2023-01-17T23:06:17.354Z,1.25
2023-01-17T23:08:45.932Z,1.42
2023-01-17T23:11:39.009Z,1.25
2023-01-17T23:14:23.199Z,1.35
2023-01-17T23:17:09.434Z,1.33
2023-01-17T23:19:47.975Z,1.67
2023-01-17T23:22:19.024Z,1.41
2023-01-17T23:25:00.448Z,0.99
2023-01-17T23:27:59.331Z,0.72
2023-01-17T23:30:37.324Z,0.85
2023-01-17T23:33:06.184Z,1.23
2023-01-17T23:35:41.446Z,1.49
2023-01-17T23:38:33.585Z,1.65
2023-01-17T23:41:21.764Z,1.85
2023-01-17T23:43:53.441Z,1.28
2023-01-17T23:46:20.395Z,0.99
2023-01-17T23:48:47.463Z,1.65
2023-01-17T23:51:14.154Z,1.87
2023-01-17T23:53:41.089Z,1.61
2023-01-17T23:56:15.225Z,1.29
2023-01-17T23:58:42.035Z,1.13
